Terminal Aerodrome Forecast
Issued by NWS

Home | Current Version | Previous Version | Text Only | Print | Product List | Glossary Off
Versions: 1 2 3 4 5 6 7 8 9 10 11 12 13

468
FTUS45 KGGW 242329
TAFSDY
TAF
KSDY 242329Z 2500/2524 31019G29KT P6SM OVC040
     FM250400 32010KT P6SM OVC050
     FM250900 30006KT P6SM BKN060
     FM251800 29009KT P6SM BKN090=

USA.gov is the U.S. government's official web portal to all federal, state and local government web resources and services.